Time;durP1;ratioP1;P1;durP2;ratioP2;P2;SDS_P1;SDS_P2;PMS_P1;PMS_P2;Temp;Humidity;BMP_temperature;BMP_pressure;BME280_temperature;BME280_humidity;BME280_pressure;Samples;Min_cycle;Max_cycle;Signal;HPM_P1;HPM_P2
2020/12/16 00:01:52;;;;;;;3.78;2.42;;;;;;;17.67;56.72;101500.94;4836816;29;20046;-76
2020/12/16 00:04:19;;;;;;;3.75;2.53;;;;;;;17.66;56.56;101504.41;4848798;29;20408;-76
2020/12/16 00:06:45;;;;;;;3.67;2.30;;;;;;;17.65;56.59;101509.59;4830256;29;20476;-76
2020/12/16 00:09:11;;;;;;;3.63;2.47;;;;;;;17.66;56.63;101511.38;4821557;29;20052;-76
2020/12/16 00:11:36;;;;;;;2.67;2.30;;;;;;;17.67;56.43;101513.94;4831023;29;20034;-75
2020/12/16 00:14:02;;;;;;;3.13;2.40;;;;;;;17.66;56.61;101514.81;4831030;29;20066;-76
2020/12/16 00:16:27;;;;;;;3.72;2.38;;;;;;;17.65;56.56;101507.00;4819474;29;20036;-76
2020/12/16 00:18:53;;;;;;;4.55;2.22;;;;;;;17.65;56.52;101501.81;4816126;29;20128;-76
2020/12/16 00:21:22;;;;;;;3.88;2.53;;;;;;;17.67;56.43;101507.88;4846918;29;20396;-76
2020/12/16 00:23:48;;;;;;;3.28;2.20;;;;;;;17.67;56.38;101511.34;4849141;29;20034;-76
2020/12/16 00:26:14;;;;;;;3.60;2.38;;;;;;;17.66;56.48;101503.56;4845109;29;20056;-76
2020/12/16 00:28:40;;;;;;;2.85;2.33;;;;;;;17.65;56.61;101507.88;4833570;29;20029;-76
2020/12/16 00:31:06;;;;;;;3.63;2.40;;;;;;;17.64;56.56;101513.94;4832241;29;20070;-76
2020/12/16 00:33:32;;;;;;;3.63;2.47;;;;;;;17.65;56.24;101514.81;4833950;29;20036;-76
2020/12/16 00:35:58;;;;;;;2.53;2.10;;;;;;;17.64;56.42;101511.34;4834316;29;20099;-76
2020/12/16 00:38:26;;;;;;;3.20;2.50;;;;;;;17.64;56.48;101511.34;4836109;29;20421;-76
2020/12/16 00:40:54;;;;;;;3.78;2.40;;;;;;;17.65;56.47;101509.59;4822763;29;20103;-76
2020/12/16 00:43:23;;;;;;;3.00;2.30;;;;;;;17.64;56.37;101510.50;4836054;29;20036;-76
2020/12/16 00:45:48;;;;;;;3.05;2.38;;;;;;;17.64;56.45;101515.69;4845928;29;20057;-76
2020/12/16 00:48:14;;;;;;;3.50;2.30;;;;;;;17.63;56.38;101520.00;4822211;29;20034;-76
2020/12/16 00:50:39;;;;;;;3.00;2.42;;;;;;;17.63;56.47;101520.00;4819250;29;20763;-76
2020/12/16 00:53:05;;;;;;;5.57;2.33;;;;;;;17.62;56.46;101517.44;4817680;29;20469;-76
2020/12/16 00:55:30;;;;;;;3.08;2.22;;;;;;;17.63;56.18;101519.16;4851667;29;20074;-75
2020/12/16 00:57:56;;;;;;;4.22;2.85;;;;;;;17.63;56.37;101520.00;4847882;29;20037;-76
2020/12/16 01:00:21;;;;;;;3.92;2.50;;;;;;;17.63;56.31;101524.34;4848223;29;20036;-76
2020/12/16 01:02:48;;;;;;;2.92;2.30;;;;;;;17.61;56.27;101519.13;4821412;29;20041;-76
2020/12/16 01:05:18;;;;;;;3.50;2.30;;;;;;;17.62;56.32;101517.44;4832557;29;20026;-76
2020/12/16 01:07:44;;;;;;;3.30;2.30;;;;;;;17.61;56.12;101518.28;4833769;29;20385;-75
2020/12/16 01:10:11;;;;;;;3.22;2.45;;;;;;;17.62;56.25;101522.63;4823952;29;20042;-76
2020/12/16 01:12:38;;;;;;;2.70;2.28;;;;;;;17.62;56.33;101527.84;4814317;29;20128;-76
2020/12/16 01:15:07;;;;;;;3.55;2.33;;;;;;;17.61;56.21;101524.34;4851354;29;20029;-76
2020/12/16 01:17:33;;;;;;;3.13;2.38;;;;;;;17.62;56.09;101533.03;4833831;29;20041;-76
2020/12/16 01:19:58;;;;;;;3.22;2.35;;;;;;;17.59;56.21;101540.81;4837350;29;20033;-76
2020/12/16 01:22:23;;;;;;;2.92;2.20;;;;;;;17.60;56.16;101529.56;4853367;29;20049;-76
2020/12/16 01:24:49;;;;;;;3.30;2.35;;;;;;;17.61;56.11;101533.88;4840571;29;20043;-76
2020/12/16 01:27:14;;;;;;;3.03;2.47;;;;;;;17.60;56.04;101537.38;4822444;29;20446;-76
2020/12/16 01:29:39;;;;;;;3.30;2.30;;;;;;;17.60;56.17;101538.25;4821540;29;20435;-76
2020/12/16 01:32:05;;;;;;;3.33;2.20;;;;;;;17.59;56.14;101538.22;4850582;29;20030;-75
2020/12/16 01:34:30;;;;;;;4.95;2.50;;;;;;;17.59;56.32;101540.81;4812796;29;20034;-76
2020/12/16 01:36:56;;;;;;;3.00;2.28;;;;;;;17.59;56.05;101543.44;4823313;29;20520;-76
2020/12/16 01:39:21;;;;;;;3.88;2.25;;;;;;;17.60;56.10;101553.00;4833192;29;20413;-76
2020/12/16 01:41:48;;;;;;;2.97;1.98;;;;;;;17.58;56.12;101558.19;4806587;29;20029;-76
2020/12/16 01:44:19;;;;;;;3.30;2.25;;;;;;;17.58;56.04;101549.50;4836272;29;20038;-76
2020/12/16 01:46:52;;;;;;;2.65;2.30;;;;;;;17.59;55.86;101553.84;4856117;29;20048;-76
2020/12/16 01:49:20;;;;;;;2.50;1.90;;;;;;;17.57;56.30;101550.38;4831645;29;20046;-76
2020/12/16 01:51:47;;;;;;;3.67;2.38;;;;;;;17.57;55.83;101552.97;4848837;29;20092;-76
2020/12/16 01:54:15;;;;;;;3.65;2.45;;;;;;;17.57;55.83;101556.47;4833949;29;20033;-75
2020/12/16 01:56:41;;;;;;;3.40;2.15;;;;;;;17.57;55.78;101555.56;4847181;29;20041;-76
2020/12/16 01:59:15;;;;;;;2.92;2.05;;;;;;;17.57;56.05;101547.75;4832744;29;20033;-76
2020/12/16 02:01:43;;;;;;;3.42;2.13;;;;;;;17.57;55.87;101547.75;4847205;29;20025;-76
2020/12/16 02:04:12;;;;;;;2.30;2.10;;;;;;;17.57;55.97;101548.66;4833555;29;20042;-76
2020/12/16 02:06:41;;;;;;;4.18;2.33;;;;;;;17.58;55.83;101546.91;4836675;29;20185;-76
2020/12/16 02:09:09;;;;;;;2.50;2.05;;;;;;;17.54;55.94;101546.03;4834647;29;20034;-76
2020/12/16 02:11:36;;;;;;;3.05;2.22;;;;;;;17.55;55.96;101546.88;4831829;29;20053;-75
2020/12/16 02:14:06;;;;;;;2.92;2.20;;;;;;;17.56;55.84;101548.63;4829550;29;20516;-76
2020/12/16 02:16:33;;;;;;;2.78;2.10;;;;;;;17.55;56.15;101544.28;4838558;29;20070;-76
2020/12/16 02:18:59;;;;;;;3.55;2.15;;;;;;;17.54;55.73;101546.03;4827972;29;20070;-76
2020/12/16 02:21:24;;;;;;;2.67;2.25;;;;;;;17.54;55.80;101542.56;4847684;29;20065;-76
2020/12/16 02:23:51;;;;;;;2.60;2.10;;;;;;;17.53;55.90;101546.91;4832238;29;20477;-76
2020/12/16 02:26:17;;;;;;;2.65;2.10;;;;;;;17.54;55.78;101551.22;4836994;29;20038;-76
2020/12/16 02:28:42;;;;;;;3.22;2.15;;;;;;;17.54;55.75;101551.22;4823064;29;20042;-76
2020/12/16 02:31:11;;;;;;;2.75;2.30;;;;;;;17.54;55.53;101551.22;4837314;29;20034;-76
2020/12/16 02:33:37;;;;;;;4.15;2.50;;;;;;;17.53;55.79;101548.63;4833348;29;20359;-76
2020/12/16 02:36:03;;;;;;;2.20;2.00;;;;;;;17.53;55.36;101548.63;4847577;29;20048;-75
2020/12/16 02:38:28;;;;;;;2.42;2.03;;;;;;;17.52;55.74;101542.56;4844823;29;20058;-76
2020/12/16 02:40:54;;;;;;;2.20;1.90;;;;;;;17.53;55.61;101548.63;4832766;29;20037;-76
2020/12/16 02:43:19;;;;;;;2.60;2.10;;;;;;;17.52;55.64;101549.50;4831287;29;20090;-76
2020/12/16 02:45:44;;;;;;;2.60;2.30;;;;;;;17.50;55.71;101549.47;4831066;29;20038;-76
2020/12/16 02:48:10;;;;;;;2.20;2.00;;;;;;;17.52;55.36;101552.09;4836479;29;20029;-76
2020/12/16 02:50:35;;;;;;;2.55;2.05;;;;;;;17.51;55.76;101558.16;4818520;29;20535;-76
2020/12/16 02:53:01;;;;;;;2.45;2.08;;;;;;;17.52;55.79;101559.91;4831155;29;20038;-77
2020/12/16 02:55:26;;;;;;;2.40;1.90;;;;;;;17.50;55.78;101557.28;4821317;29;20041;-76
2020/12/16 02:57:51;;;;;;;2.70;2.17;;;;;;;17.50;55.60;101552.09;4813157;29;20072;-76
2020/12/16 03:00:17;;;;;;;2.95;1.90;;;;;;;17.51;55.60;101559.03;4822933;29;20092;-76
2020/12/16 03:02:42;;;;;;;2.85;1.92;;;;;;;17.51;55.77;101556.44;4807010;29;20034;-76
2020/12/16 03:05:08;;;;;;;2.33;1.73;;;;;;;17.49;55.71;101552.97;4826386;29;20034;-76
2020/12/16 03:07:34;;;;;;;3.25;2.20;;;;;;;17.50;55.49;101551.22;4817143;29;20568;-76
2020/12/16 03:10:00;;;;;;;2.42;2.20;;;;;;;17.50;55.51;101556.44;4842784;29;20050;-76
2020/12/16 03:12:27;;;;;;;2.40;1.80;;;;;;;17.50;55.66;101556.44;4807830;29;20120;-76
2020/12/16 03:14:52;;;;;;;2.72;2.10;;;;;;;17.48;55.41;101556.41;4848087;29;20121;-76
2020/12/16 03:17:18;;;;;;;2.13;1.80;;;;;;;17.48;55.74;101554.72;4823537;29;20152;-76
2020/12/16 03:19:43;;;;;;;3.35;2.50;;;;;;;17.47;55.47;101552.97;4806244;29;20034;-76
2020/12/16 03:22:08;;;;;;;2.20;2.00;;;;;;;17.46;55.50;101543.44;4838818;29;20063;-76
2020/12/16 03:24:34;;;;;;;2.65;2.30;;;;;;;17.47;55.43;101544.28;4836746;29;20553;-76
2020/12/16 03:26:59;;;;;;;2.38;2.10;;;;;;;17.48;55.54;101546.00;4816861;29;20045;-75
2020/12/16 03:29:24;;;;;;;2.40;2.10;;;;;;;17.46;55.28;101535.63;4826265;29;20033;-76
2020/12/16 03:31:50;;;;;;;3.80;2.08;;;;;;;17.45;55.51;101541.66;4829075;29;20176;-76
2020/12/16 03:34:15;;;;;;;2.78;2.45;;;;;;;17.45;55.67;101544.28;4820180;29;20038;-76
2020/12/16 03:36:41;;;;;;;2.58;2.08;;;;;;;17.45;55.53;101546.88;4840994;29;20105;-76
2020/12/16 03:39:07;;;;;;;2.67;2.10;;;;;;;17.45;55.68;101544.28;4844271;29;20065;-76
2020/12/16 03:41:32;;;;;;;2.78;2.20;;;;;;;17.45;55.14;101540.81;4827000;29;20058;-76
2020/12/16 03:43:58;;;;;;;3.00;2.20;;;;;;;17.46;55.42;101542.53;4844706;29;20089;-76
2020/12/16 03:46:23;;;;;;;3.65;2.00;;;;;;;17.46;55.47;101542.53;4827924;29;20049;-76
2020/12/16 03:48:49;;;;;;;2.40;2.20;;;;;;;17.45;55.35;101539.06;4846168;29;20753;-75
2020/12/16 03:51:15;;;;;;;2.47;2.10;;;;;;;17.43;55.51;101533.00;4845262;29;20046;-76
2020/12/16 03:53:41;;;;;;;2.67;2.20;;;;;;;17.43;55.48;101540.78;4834912;29;20048;-76
2020/12/16 03:56:14;;;;;;;2.42;2.10;;;;;;;17.43;55.33;101542.53;4831292;29;20163;-75
2020/12/16 03:58:44;;;;;;;2.42;2.08;;;;;;;17.43;55.26;101542.53;4846191;29;20061;-76
2020/12/16 04:01:12;;;;;;;2.45;2.22;;;;;;;17.43;55.45;101547.75;4837887;29;20113;-75
2020/12/16 04:03:38;;;;;;;2.45;2.20;;;;;;;17.42;55.68;101552.09;4836082;29;20370;-76
2020/12/16 04:06:09;;;;;;;2.60;1.95;;;;;;;17.42;55.49;101549.47;4814922;29;20040;-75
2020/12/16 04:08:35;;;;;;;2.42;2.10;;;;;;;17.40;55.41;101551.22;4830230;29;21954;-75
2020/12/16 04:11:02;;;;;;;4.05;2.20;;;;;;;17.42;55.33;101554.69;4846047;29;20109;-75
2020/12/16 04:13:27;;;;;;;2.65;2.20;;;;;;;17.42;55.58;101551.19;4839285;29;20045;-75
2020/12/16 04:15:53;;;;;;;2.45;2.10;;;;;;;17.43;55.50;101552.94;4823579;29;20042;-75
2020/12/16 04:18:18;;;;;;;2.80;1.85;;;;;;;17.42;55.21;101557.28;4821216;29;20033;-75
2020/12/16 04:20:43;;;;;;;2.50;2.30;;;;;;;17.42;55.44;101554.69;4835067;29;20082;-75
2020/12/16 04:23:12;;;;;;;2.85;2.40;;;;;;;17.41;55.40;101559.88;4819577;29;20049;-74
2020/12/16 04:25:38;;;;;;;2.45;2.10;;;;;;;17.40;55.40;101558.16;4855186;29;20374;-75
2020/12/16 04:28:04;;;;;;;2.42;2.22;;;;;;;17.40;55.39;101545.16;4834444;29;20033;-75
2020/12/16 04:30:29;;;;;;;2.15;1.95;;;;;;;17.39;55.44;101551.19;4830965;29;20040;-75
2020/12/16 04:32:56;;;;;;;2.42;2.22;;;;;;;17.40;55.26;101555.56;4834665;29;20033;-74
2020/12/16 04:35:24;;;;;;;2.22;1.95;;;;;;;17.40;55.20;101546.00;4837757;29;20030;-75
2020/12/16 04:37:51;;;;;;;2.83;2.53;;;;;;;17.40;55.52;101559.03;4838324;29;20065;-75
2020/12/16 04:40:20;;;;;;;2.35;2.13;;;;;;;17.39;55.42;101559.88;4856606;29;20101;-75
2020/12/16 04:42:59;;;;;;;2.20;1.85;;;;;;;17.40;55.27;101555.56;4840212;29;20393;-74
2020/12/16 04:45:25;;;;;;;3.25;2.00;;;;;;;17.38;55.35;101555.53;4833698;29;20050;-74
2020/12/16 04:47:50;;;;;;;2.47;2.08;;;;;;;17.39;55.46;101556.41;4825851;29;20064;-76
2020/12/16 04:50:16;;;;;;;2.78;2.30;;;;;;;17.38;55.35;101558.16;4838061;29;20125;-76
2020/12/16 04:52:47;;;;;;;2.88;2.08;;;;;;;17.38;55.52;101542.53;4818538;29;20037;-76
2020/12/16 04:55:14;;;;;;;2.53;2.22;;;;;;;17.37;55.26;101553.78;4834770;29;20036;-76
2020/12/16 04:57:40;;;;;;;2.38;2.17;;;;;;;17.37;55.35;101555.53;4819958;29;20061;-76
2020/12/16 05:00:07;;;;;;;2.70;2.30;;;;;;;17.36;55.30;101565.06;4824363;29;20113;-76
2020/12/16 05:02:32;;;;;;;2.35;1.90;;;;;;;17.37;55.33;101561.59;4833218;29;20026;-75
2020/12/16 05:04:58;;;;;;;2.47;2.03;;;;;;;17.36;55.22;101552.06;4832762;29;20065;-75
2020/12/16 05:07:30;;;;;;;2.50;2.10;;;;;;;17.36;55.29;101553.81;4838999;29;20029;-75
2020/12/16 05:09:56;;;;;;;2.22;2.00;;;;;;;17.35;55.42;101557.25;4835538;29;20038;-75
2020/12/16 05:12:21;;;;;;;2.20;2.00;;;;;;;17.36;55.12;101554.66;4849811;29;20396;-76
2020/12/16 05:14:47;;;;;;;2.10;1.90;;;;;;;17.35;55.13;101549.44;4850578;29;20094;-76
2020/12/16 05:17:15;;;;;;;2.47;2.15;;;;;;;17.34;55.21;101548.59;4848923;29;20041;-75
2020/12/16 05:19:43;;;;;;;2.45;2.03;;;;;;;17.35;55.15;101546.84;4846368;29;20032;-75
2020/12/16 05:22:22;;;;;;;2.20;2.00;;;;;;;17.34;55.23;101552.94;4846963;29;20034;-75
2020/12/16 05:25:06;;;;;;;2.40;1.98;;;;;;;17.33;55.32;101552.03;4847795;29;20067;-75
2020/12/16 05:27:32;;;;;;;2.83;2.13;;;;;;;17.33;55.28;101559.84;4832302;29;20086;-75
2020/12/16 05:30:01;;;;;;;4.82;2.00;;;;;;;17.33;55.08;101552.03;4846782;29;20488;-76
2020/12/16 05:32:32;;;;;;;2.15;1.77;;;;;;;17.33;55.24;101554.63;4838248;29;20030;-76
2020/12/16 05:34:59;;;;;;;2.60;2.10;;;;;;;17.34;55.28;101555.53;4853750;29;20156;-76
2020/12/16 05:37:33;;;;;;;3.88;1.95;;;;;;;17.35;55.51;101559.84;4848790;29;20524;-76
2020/12/16 05:39:59;;;;;;;2.42;2.20;;;;;;;17.35;55.63;101562.47;4847814;29;21438;-76
2020/12/16 05:42:25;;;;;;;2.08;1.88;;;;;;;17.34;55.68;101563.34;4836621;29;20040;-76
2020/12/16 05:44:56;;;;;;;2.40;1.90;;;;;;;17.34;55.30;101559.00;4849496;29;20120;-75
2020/12/16 05:47:21;;;;;;;2.67;2.03;;;;;;;17.37;55.66;101563.34;4844702;29;20041;-76
2020/12/16 05:49:47;;;;;;;2.47;2.15;;;;;;;17.36;55.75;101564.22;4851976;29;20034;-76
2020/12/16 05:52:12;;;;;;;1.90;1.70;;;;;;;17.36;55.68;101559.00;4848253;29;20042;-76
2020/12/16 05:54:38;;;;;;;2.13;1.83;;;;;;;17.38;55.59;101565.09;4819836;29;20388;-77
2020/12/16 05:57:29;;;;;;;2.38;2.00;;;;;;;17.38;55.87;101568.56;4854265;29;20142;-77
2020/12/16 06:00:12;;;;;;;2.78;1.98;;;;;;;17.38;55.76;101570.28;4855164;29;20022;-75
2020/12/16 06:02:40;;;;;;;2.63;1.88;;;;;;;17.38;55.68;101571.16;4834750;29;20396;-76
2020/12/16 06:05:08;;;;;;;1.77;1.65;;;;;;;17.41;55.71;101576.34;4851551;29;20041;-77
2020/12/16 06:07:38;;;;;;;2.40;1.92;;;;;;;17.44;55.72;101581.59;4850237;29;20497;-76
2020/12/16 06:10:04;;;;;;;2.60;2.00;;;;;;;17.45;55.86;101577.25;4853447;29;20049;-77
2020/12/16 06:12:30;;;;;;;3.38;2.20;;;;;;;17.45;56.10;101574.63;4850302;29;20435;-76
2020/12/16 06:15:10;;;;;;;5.72;2.10;;;;;;;17.46;55.70;101573.75;4836563;29;20374;-77
2020/12/16 06:17:44;;;;;;;4.10;2.20;;;;;;;17.46;56.05;101579.84;4849497;29;20041;-77
2020/12/16 06:20:14;;;;;;;9.45;2.30;;;;;;;17.46;56.04;101581.56;4849535;29;20081;-76
2020/12/16 06:22:42;;;;;;;4.07;2.10;;;;;;;17.46;56.01;101574.66;4855791;29;20057;-80
2020/12/16 06:25:09;;;;;;;2.50;2.13;;;;;;;17.47;55.94;101581.56;4855971;29;20069;-78
2020/12/16 06:27:43;;;;;;;3.10;2.05;;;;;;;17.47;56.17;101570.31;4857345;29;20108;-77
2020/12/16 06:30:13;;;;;;;2.17;1.98;;;;;;;17.48;55.96;101566.81;4841557;29;20489;-78
2020/12/16 06:32:44;;;;;;;2.60;2.10;;;;;;;17.46;56.04;101572.06;4853200;29;20025;-78
2020/12/16 06:35:16;;;;;;;3.83;1.98;;;;;;;17.46;56.07;101577.25;4853726;29;20513;-77
2020/12/16 06:37:41;;;;;;;2.97;1.98;;;;;;;17.47;55.99;101581.56;4849243;29;20413;-76
2020/12/16 06:40:07;;;;;;;2.25;1.80;;;;;;;17.48;56.10;101577.22;4826455;29;20030;-78
2020/12/16 06:42:33;;;;;;;2.42;1.92;;;;;;;17.48;55.98;101578.13;4813612;29;20037;-76
2020/12/16 06:45:31;;;;;;;3.28;2.20;;;;;;;17.47;56.02;101571.16;4851947;29;20066;-78
2020/12/16 06:47:57;;;;;;;2.55;1.70;;;;;;;17.47;56.10;101573.78;4833881;29;20048;-76
2020/12/16 06:50:22;;;;;;;3.53;2.10;;;;;;;17.48;55.88;101577.22;4817581;29;20034;-78
2020/12/16 06:52:48;;;;;;;2.15;1.70;;;;;;;17.48;55.92;101572.94;4826395;29;20462;-78
2020/12/16 06:55:14;;;;;;;2.65;2.20;;;;;;;17.48;56.13;101572.94;4855255;29;20034;-78
2020/12/16 06:57:50;;;;;;;2.83;1.80;;;;;;;17.48;56.03;101572.03;4822632;29;20244;-77
2020/12/16 07:00:23;;;;;;;2.13;1.60;;;;;;;17.49;55.91;101560.78;4837653;29;20457;-78
2020/12/16 07:02:50;;;;;;;2.22;2.03;;;;;;;17.49;55.84;101560.78;4838632;29;20034;-77
2020/12/16 07:05:43;;;;;;;2.85;1.90;;;;;;;17.50;56.01;101566.84;4817970;29;20041;-77
2020/12/16 07:08:08;;;;;;;2.00;1.80;;;;;;;17.49;56.00;101563.38;4854549;29;20045;-77
2020/12/16 07:10:33;;;;;;;2.97;1.70;;;;;;;17.50;56.02;101564.25;4824938;29;20030;-78
2020/12/16 07:13:12;;;;;;;3.88;1.58;;;;;;;17.50;55.89;101572.03;4834439;29;20042;-77
2020/12/16 07:15:40;;;;;;;3.10;1.90;;;;;;;17.50;55.97;101572.91;4852435;29;20038;-78
2020/12/16 07:18:23;;;;;;;2.00;1.60;;;;;;;17.50;55.95;101572.03;4850610;29;20938;-78
2020/12/16 07:20:49;;;;;;;2.28;1.73;;;;;;;17.50;55.87;101570.31;4834569;29;20042;-77
2020/12/16 07:23:15;;;;;;;1.90;1.60;;;;;;;17.50;55.84;101570.31;4850150;29;20041;-78
2020/12/16 07:25:46;;;;;;;2.40;1.70;;;;;;;17.52;55.94;101575.53;4837376;29;20028;-77
2020/12/16 07:28:12;;;;;;;2.45;1.70;;;;;;;17.51;56.12;101571.16;4820675;29;20044;-78
2020/12/16 07:30:48;;;;;;;2.83;1.77;;;;;;;17.52;55.67;101578.13;4844413;29;20120;-78
2020/12/16 07:33:14;;;;;;;1.70;1.60;;;;;;;17.51;55.94;101573.75;4848848;29;20033;-77
2020/12/16 07:35:46;;;;;;;1.85;1.45;;;;;;;17.51;55.97;101586.78;4832494;29;20439;-77
2020/12/16 07:38:12;;;;;;;3.10;1.90;;;;;;;17.50;55.93;101587.66;4848542;29;20050;-78
2020/12/16 07:40:37;;;;;;;2.20;1.75;;;;;;;17.47;55.90;101584.19;4847888;29;20030;-77
2020/12/16 07:43:03;;;;;;;3.10;2.17;;;;;;;17.45;55.88;101577.25;4830290;29;20130;-77
2020/12/16 07:45:28;;;;;;;5.03;2.63;;;;;;;17.44;55.91;101585.91;4833670;29;20034;-77
2020/12/16 07:47:55;;;;;;;8.63;3.22;;;;;;;17.41;56.01;101593.69;4808646;29;20034;-75
2020/12/16 07:50:20;;;;;;;5.00;3.17;;;;;;;17.37;55.97;101582.41;4821878;29;20430;-75
2020/12/16 07:52:54;;;;;;;7.10;3.78;;;;;;;17.37;55.68;101581.53;4828616;29;20116;-76
2020/12/16 07:55:26;;;;;;;5.55;3.67;;;;;;;17.43;55.61;101585.03;4839867;29;20394;-79
2020/12/16 07:57:51;;;;;;;8.95;4.07;;;;;;;17.47;55.27;101591.97;4831406;29;20048;-79
2020/12/16 08:00:23;;;;;;;8.23;4.05;;;;;;;17.51;55.11;101590.28;4819722;29;20034;-79
2020/12/16 08:02:54;;;;;;;7.07;3.70;;;;;;;17.51;55.19;101587.66;4852189;29;20041;-79
2020/12/16 08:05:19;;;;;;;8.00;3.75;;;;;;;17.52;55.15;101588.53;4816763;29;20044;-79
2020/12/16 08:07:45;;;;;;;6.97;3.72;;;;;;;17.53;55.14;101590.25;4858003;29;20117;-79
2020/12/16 08:10:10;;;;;;;6.28;3.65;;;;;;;17.53;55.51;101592.84;4841890;29;20037;-79
2020/12/16 08:12:41;;;;;;;9.23;3.60;;;;;;;17.52;55.24;101594.59;4826998;29;20090;-79
2020/12/16 08:15:12;;;;;;;7.93;3.58;;;;;;;17.53;55.29;101585.06;4845283;29;20033;-78
2020/12/16 08:17:42;;;;;;;6.47;3.45;;;;;;;17.54;55.16;101586.81;4831626;29;20025;-79
2020/12/16 08:20:14;;;;;;;5.80;3.10;;;;;;;17.54;55.17;101585.06;4833182;29;20034;-79
2020/12/16 08:22:41;;;;;;;5.57;3.10;;;;;;;17.56;54.97;101588.53;4840275;29;20036;-79
2020/12/16 08:25:10;;;;;;;7.57;3.20;;;;;;;17.58;55.04;101591.16;4826548;29;20040;-78
2020/12/16 08:27:43;;;;;;;4.82;2.85;;;;;;;17.57;55.04;101587.69;4836369;29;20390;-78
2020/12/16 08:30:10;;;;;;;8.15;3.17;;;;;;;17.59;55.03;101585.06;4835367;29;20061;-81
2020/12/16 08:32:50;;;;;;;10.50;2.92;;;;;;;17.61;55.02;101585.94;4821171;29;20030;-80
2020/12/16 08:35:20;;;;;;;5.38;2.80;;;;;;;17.61;55.21;101580.75;4847068;29;20482;-79
2020/12/16 08:37:54;;;;;;;4.78;2.80;;;;;;;17.62;54.96;101574.69;4851760;29;20054;-79
2020/12/16 08:40:21;;;;;;;6.88;2.85;;;;;;;17.63;54.88;101573.81;4849291;29;20037;-79
2020/12/16 08:42:47;;;;;;;7.72;2.85;;;;;;;17.63;54.92;101581.63;4841254;29;20037;-79
2020/12/16 08:45:13;;;;;;;5.10;2.63;;;;;;;17.64;55.11;101581.63;4842932;29;20040;-79
2020/12/16 08:47:38;;;;;;;5.00;2.97;;;;;;;17.65;54.80;101593.75;4822340;29;20034;-79
2020/12/16 08:50:13;;;;;;;4.65;2.80;;;;;;;17.66;54.88;101592.91;4826076;29;20090;-79
2020/12/16 08:52:41;;;;;;;3.60;2.15;;;;;;;17.67;55.05;101601.59;4830636;29;20500;-79
2020/12/16 08:55:25;;;;;;;5.10;2.63;;;;;;;17.67;54.84;101607.66;4846235;29;20105;-78
2020/12/16 08:57:56;;;;;;;4.40;2.80;;;;;;;17.67;55.23;101602.44;4830073;29;20034;-78
2020/12/16 09:00:31;;;;;;;5.40;2.67;;;;;;;17.68;54.96;101601.59;4839366;29;20385;-78
2020/12/16 09:03:01;;;;;;;3.65;2.50;;;;;;;17.69;55.19;101589.44;4845402;29;20033;-78
2020/12/16 09:05:28;;;;;;;4.70;2.67;;;;;;;17.69;54.83;101590.31;4841875;29;20025;-79
2020/12/16 09:08:14;;;;;;;5.03;2.10;;;;;;;17.70;54.99;101588.56;4837832;29;20058;-78
2020/12/16 09:10:41;;;;;;;3.03;2.25;;;;;;;17.71;55.04;101608.53;4855196;29;20062;-78
2020/12/16 09:13:18;;;;;;;4.50;2.25;;;;;;;17.73;54.84;101604.19;4856812;29;20037;-79
2020/12/16 09:15:50;;;;;;;4.32;2.47;;;;;;;17.72;54.95;101589.44;4856592;29;20030;-78
2020/12/16 09:18:32;;;;;;;3.33;2.30;;;;;;;17.74;54.97;101590.31;4857583;29;20045;-80
2020/12/16 09:20:58;;;;;;;4.55;2.30;;;;;;;17.72;55.04;101586.81;4852320;29;20038;-80
2020/12/16 09:23:25;;;;;;;4.07;2.17;;;;;;;17.72;55.10;101581.63;4838964;29;20032;-80
2020/12/16 09:25:51;;;;;;;4.32;2.60;;;;;;;17.72;54.98;101592.03;4847138;29;20061;-80
2020/12/16 09:28:17;;;;;;;4.43;2.38;;;;;;;17.71;54.97;101599.88;4835568;29;20125;-81
2020/12/16 09:30:42;;;;;;;5.75;2.40;;;;;;;17.71;55.13;101608.53;4847588;29;20029;-78
2020/12/16 09:33:13;;;;;;;3.33;2.35;;;;;;;17.72;55.23;101612.00;4839112;29;20404;-78
2020/12/16 09:35:39;;;;;;;4.25;2.17;;;;;;;17.75;54.79;101627.66;4825221;29;20034;-78
2020/12/16 09:38:21;;;;;;;4.57;2.28;;;;;;;17.76;55.03;101631.97;4856824;29;20058;-79
2020/12/16 09:40:47;;;;;;;3.55;2.25;;;;;;;17.75;55.28;101636.31;4826491;29;20037;-79
2020/12/16 09:43:14;;;;;;;3.85;2.40;;;;;;;17.76;55.32;101634.56;4861333;29;20037;-79
2020/12/16 09:45:40;;;;;;;2.55;2.10;;;;;;;17.76;55.19;101629.38;4847016;29;20025;-80
2020/12/16 09:48:06;;;;;;;3.78;2.15;;;;;;;17.75;55.16;101620.69;4849665;29;20056;-79
2020/12/16 09:50:34;;;;;;;2.97;2.33;;;;;;;17.76;55.44;101618.97;4837872;29;20133;-80
2020/12/16 09:53:05;;;;;;;4.20;2.40;;;;;;;17.77;55.12;101626.78;4846293;29;20429;-79
2020/12/16 09:55:36;;;;;;;2.58;1.92;;;;;;;17.78;55.02;101618.09;4824876;29;20069;-79
2020/12/16 09:58:06;;;;;;;3.58;2.28;;;;;;;17.79;55.29;101618.94;4829571;29;20120;-79
2020/12/16 10:00:34;;;;;;;3.42;2.20;;;;;;;17.79;54.95;101617.25;4831286;29;20923;-80
2020/12/16 10:03:11;;;;;;;3.38;2.10;;;;;;;17.79;54.92;101617.25;4859444;29;20093;-79
2020/12/16 10:05:38;;;;;;;2.90;2.20;;;;;;;17.80;55.24;101616.34;4830817;29;20117;-79
2020/12/16 10:08:11;;;;;;;2.63;2.00;;;;;;;17.81;55.11;101601.59;4828356;29;20048;-79
2020/12/16 10:10:37;;;;;;;4.57;2.35;;;;;;;17.81;55.07;101607.69;4836309;29;20034;-79
2020/12/16 10:13:02;;;;;;;2.83;1.88;;;;;;;17.81;55.05;101612.00;4839154;29;20388;-79
2020/12/16 10:15:28;;;;;;;2.95;2.13;;;;;;;17.82;54.96;101614.66;4843433;29;20484;-79
2020/12/16 10:17:54;;;;;;;2.63;2.00;;;;;;;17.83;54.82;101616.41;4850287;29;20033;-79
2020/12/16 10:20:19;;;;;;;2.95;2.22;;;;;;;17.85;54.99;101608.59;4830640;29;20800;-79
2020/12/16 10:22:44;;;;;;;2.45;1.88;;;;;;;17.86;54.76;101597.31;4854310;29;20044;-79
2020/12/16 10:25:12;;;;;;;3.30;1.85;;;;;;;17.85;55.02;101595.56;4823899;29;20441;-79
2020/12/16 10:27:37;;;;;;;2.53;1.90;;;;;;;17.85;55.20;101599.03;4836305;29;20045;-78
2020/12/16 10:30:04;;;;;;;4.55;2.15;;;;;;;17.84;54.95;101592.09;4852422;29;20044;-79
2020/12/16 10:32:30;;;;;;;3.97;2.10;;;;;;;17.84;54.93;101591.25;4841403;29;20021;-79
2020/12/16 10:34:55;;;;;;;3.47;2.20;;;;;;;17.83;54.73;101594.69;4817416;29;20156;-79
2020/12/16 10:37:21;;;;;;;3.63;2.40;;;;;;;17.83;54.81;101598.19;4830315;29;20048;-79
2020/12/16 10:39:47;;;;;;;3.28;1.90;;;;;;;17.82;54.75;101593.84;4830186;29;20042;-80
2020/12/16 10:42:13;;;;;;;4.07;2.60;;;;;;;17.81;55.03;101589.47;4839579;29;20044;-80
2020/12/16 10:44:39;;;;;;;2.97;2.22;;;;;;;17.82;55.10;101580.81;4848471;29;20025;-79
2020/12/16 10:47:06;;;;;;;3.22;1.92;;;;;;;17.82;54.80;101585.16;4823048;29;20128;-79
2020/12/16 10:49:32;;;;;;;2.47;2.10;;;;;;;17.80;54.79;101587.72;4846681;29;20037;-79
2020/12/16 10:52:12;;;;;;;3.28;2.38;;;;;;;17.81;54.67;101586.88;4841990;29;20128;-79
2020/12/16 10:54:38;;;;;;;3.38;2.28;;;;;;;17.81;54.84;101589.47;4857060;29;20037;-79
2020/12/16 10:57:04;;;;;;;3.28;2.20;;;;;;;17.81;54.92;101580.78;4832679;29;20125;-80
2020/12/16 10:59:30;;;;;;;3.28;2.22;;;;;;;17.81;54.89;101581.66;4846333;29;20077;-80
2020/12/16 11:01:59;;;;;;;2.75;2.35;;;;;;;17.80;54.69;101566.88;4828747;29;20492;-80
2020/12/16 11:04:27;;;;;;;2.60;2.05;;;;;;;17.82;54.84;101577.34;4853566;29;20042;-79
2020/12/16 11:06:52;;;;;;;3.55;2.40;;;;;;;17.82;54.99;101562.59;4842005;29;20400;-79
2020/12/16 11:09:19;;;;;;;2.90;2.47;;;;;;;17.84;54.98;101567.81;4814141;29;20034;-79
2020/12/16 11:11:47;;;;;;;3.67;2.28;;;;;;;17.84;54.64;101554.78;4847326;29;20025;-80
2020/12/16 11:14:12;;;;;;;3.20;2.42;;;;;;;17.86;54.68;101547.84;4837940;29;20038;-80
2020/12/16 11:16:40;;;;;;;2.78;2.30;;;;;;;17.87;54.53;101549.56;4827448;29;20057;-79
2020/12/16 11:19:06;;;;;;;3.38;2.60;;;;;;;17.86;54.41;101545.25;4837671;29;20033;-80
2020/12/16 11:21:45;;;;;;;3.00;2.13;;;;;;;17.87;54.53;101539.16;4853738;29;20040;-78
2020/12/16 11:24:12;;;;;;;3.75;2.33;;;;;;;17.85;54.39;101533.94;4841209;29;20136;-78
2020/12/16 11:26:44;;;;;;;2.50;2.30;;;;;;;17.86;54.25;101534.84;4854533;29;20038;-79
2020/12/16 11:29:10;;;;;;;3.28;2.60;;;;;;;17.86;54.63;101527.03;4836975;29;20021;-80